sensor_id;sensor_type;location;lat;lon;timestamp;P1;durP1;ratioP1;P2;durP2;ratioP2
13108;SDS011;6620;53.734;11.510;2023-01-10T00:00:37;32.73;;;18.60;;
13108;SDS011;6620;53.734;11.510;2023-01-10T00:03:03;34.13;;;19.07;;
13108;SDS011;6620;53.734;11.510;2023-01-10T00:05:28;34.63;;;18.42;;
13108;SDS011;6620;53.734;11.510;2023-01-10T00:07:53;36.72;;;20.20;;
13108;SDS011;6620;53.734;11.510;2023-01-10T00:10:19;36.53;;;20.70;;
13108;SDS011;6620;53.734;11.510;2023-01-10T00:12:44;35.13;;;21.00;;
13108;SDS011;6620;53.734;11.510;2023-01-10T00:15:30;37.90;;;19.52;;
13108;SDS011;6620;53.734;11.510;2023-01-10T00:17:55;43.05;;;21.40;;
13108;SDS011;6620;53.734;11.510;2023-01-10T00:20:21;37.53;;;21.20;;
13108;SDS011;6620;53.734;11.510;2023-01-10T00:22:46;35.38;;;21.58;;
13108;SDS011;6620;53.734;11.510;2023-01-10T00:25:13;39.28;;;20.33;;
13108;SDS011;6620;53.734;11.510;2023-01-10T00:27:38;42.78;;;23.95;;
13108;SDS011;6620;53.734;11.510;2023-01-10T00:30:03;38.25;;;22.15;;
13108;SDS011;6620;53.734;11.510;2023-01-10T00:32:47;41.72;;;22.70;;
13108;SDS011;6620;53.734;11.510;2023-01-10T00:35:12;34.65;;;20.63;;
13108;SDS011;6620;53.734;11.510;2023-01-10T00:37:39;45.60;;;24.70;;
13108;SDS011;6620;53.734;11.510;2023-01-10T00:40:05;42.10;;;22.58;;
13108;SDS011;6620;53.734;11.510;2023-01-10T00:42:34;43.03;;;24.50;;
13108;SDS011;6620;53.734;11.510;2023-01-10T00:45:18;40.25;;;23.42;;
13108;SDS011;6620;53.734;11.510;2023-01-10T00:47:44;40.80;;;22.50;;
13108;SDS011;6620;53.734;11.510;2023-01-10T00:50:09;36.65;;;20.33;;
13108;SDS011;6620;53.734;11.510;2023-01-10T00:52:35;41.38;;;24.48;;
13108;SDS011;6620;53.734;11.510;2023-01-10T00:55:00;39.20;;;23.67;;
13108;SDS011;6620;53.734;11.510;2023-01-10T00:57:25;44.00;;;25.17;;
13108;SDS011;6620;53.734;11.510;2023-01-10T00:59:51;44.08;;;22.80;;
13108;SDS011;6620;53.734;11.510;2023-01-10T01:02:16;41.57;;;23.87;;
13108;SDS011;6620;53.734;11.510;2023-01-10T01:04:41;43.17;;;24.13;;
13108;SDS011;6620;53.734;11.510;2023-01-10T01:07:06;40.67;;;22.87;;
13108;SDS011;6620;53.734;11.510;2023-01-10T01:09:31;37.33;;;21.23;;
13108;SDS011;6620;53.734;11.510;2023-01-10T01:11:57;38.42;;;21.67;;
13108;SDS011;6620;53.734;11.510;2023-01-10T01:14:22;45.90;;;23.23;;
13108;SDS011;6620;53.734;11.510;2023-01-10T01:16:48;39.03;;;22.50;;
13108;SDS011;6620;53.734;11.510;2023-01-10T01:19:13;39.10;;;21.50;;
13108;SDS011;6620;53.734;11.510;2023-01-10T01:21:38;41.90;;;23.20;;
13108;SDS011;6620;53.734;11.510;2023-01-10T01:24:03;35.07;;;19.37;;
13108;SDS011;6620;53.734;11.510;2023-01-10T01:26:28;42.33;;;23.42;;
13108;SDS011;6620;53.734;11.510;2023-01-10T01:28:54;36.45;;;21.65;;
13108;SDS011;6620;53.734;11.510;2023-01-10T01:31:19;37.33;;;20.87;;
13108;SDS011;6620;53.734;11.510;2023-01-10T01:33:44;39.50;;;21.37;;
13108;SDS011;6620;53.734;11.510;2023-01-10T01:36:10;34.80;;;20.20;;
13108;SDS011;6620;53.734;11.510;2023-01-10T01:38:36;35.58;;;20.55;;
13108;SDS011;6620;53.734;11.510;2023-01-10T01:41:01;39.95;;;22.77;;
13108;SDS011;6620;53.734;11.510;2023-01-10T01:43:28;38.97;;;21.42;;
13108;SDS011;6620;53.734;11.510;2023-01-10T01:45:53;39.50;;;20.67;;
13108;SDS011;6620;53.734;11.510;2023-01-10T01:48:20;41.63;;;23.30;;
13108;SDS011;6620;53.734;11.510;2023-01-10T01:50:49;37.17;;;22.23;;
13108;SDS011;6620;53.734;11.510;2023-01-10T01:55:41;36.80;;;21.03;;
13108;SDS011;6620;53.734;11.510;2023-01-10T01:58:08;38.15;;;20.70;;
13108;SDS011;6620;53.734;11.510;2023-01-10T02:00:34;47.03;;;23.85;;
13108;SDS011;6620;53.734;11.510;2023-01-10T02:03:00;37.43;;;19.27;;
13108;SDS011;6620;53.734;11.510;2023-01-10T02:05:26;43.38;;;21.40;;
13108;SDS011;6620;53.734;11.510;2023-01-10T02:07:53;39.22;;;22.35;;
13108;SDS011;6620;53.734;11.510;2023-01-10T02:10:26;40.88;;;23.42;;
13108;SDS011;6620;53.734;11.510;2023-01-10T02:12:53;43.40;;;22.90;;
13108;SDS011;6620;53.734;11.510;2023-01-10T02:15:20;38.70;;;21.05;;
13108;SDS011;6620;53.734;11.510;2023-01-10T02:17:46;42.00;;;22.27;;
13108;SDS011;6620;53.734;11.510;2023-01-10T02:20:11;39.38;;;22.10;;
13108;SDS011;6620;53.734;11.510;2023-01-10T02:33:07;35.30;;;20.60;;
13108;SDS011;6620;53.734;11.510;2023-01-10T02:35:47;34.38;;;20.63;;
13108;SDS011;6620;53.734;11.510;2023-01-10T02:43:19;34.28;;;20.48;;
13108;SDS011;6620;53.734;11.510;2023-01-10T02:48:11;31.90;;;19.13;;
13108;SDS011;6620;53.734;11.510;2023-01-10T02:53:07;33.90;;;18.85;;
13108;SDS011;6620;53.734;11.510;2023-01-10T02:55:39;33.00;;;19.27;;
13108;SDS011;6620;53.734;11.510;2023-01-10T03:00:42;33.25;;;18.10;;
13108;SDS011;6620;53.734;11.510;2023-01-10T03:03:14;37.25;;;18.50;;
13108;SDS011;6620;53.734;11.510;2023-01-10T03:05:54;35.15;;;18.85;;
13108;SDS011;6620;53.734;11.510;2023-01-10T03:08:34;29.58;;;16.23;;
13108;SDS011;6620;53.734;11.510;2023-01-10T03:11:01;35.08;;;17.80;;
13108;SDS011;6620;53.734;11.510;2023-01-10T03:16:05;34.72;;;16.90;;
13108;SDS011;6620;53.734;11.510;2023-01-10T03:18:33;36.38;;;19.65;;
13108;SDS011;6620;53.734;11.510;2023-01-10T03:20:59;34.05;;;17.77;;
13108;SDS011;6620;53.734;11.510;2023-01-10T03:23:26;35.20;;;20.33;;
13108;SDS011;6620;53.734;11.510;2023-01-10T03:25:52;39.47;;;19.77;;
13108;SDS011;6620;53.734;11.510;2023-01-10T03:28:40;35.40;;;19.77;;
13108;SDS011;6620;53.734;11.510;2023-01-10T03:31:09;39.65;;;19.33;;
13108;SDS011;6620;53.734;11.510;2023-01-10T03:33:35;35.05;;;17.88;;
13108;SDS011;6620;53.734;11.510;2023-01-10T03:38:34;37.30;;;21.40;;
13108;SDS011;6620;53.734;11.510;2023-01-10T03:43:29;35.53;;;17.98;;
13108;SDS011;6620;53.734;11.510;2023-01-10T03:46:17;41.28;;;22.05;;
13108;SDS011;6620;53.734;11.510;2023-01-10T03:48:45;36.28;;;19.75;;
13108;SDS011;6620;53.734;11.510;2023-01-10T03:51:11;37.90;;;19.77;;
13108;SDS011;6620;53.734;11.510;2023-01-10T03:53:38;43.65;;;21.27;;
13108;SDS011;6620;53.734;11.510;2023-01-10T03:56:04;37.70;;;17.85;;
13108;SDS011;6620;53.734;11.510;2023-01-10T03:58:29;41.20;;;21.52;;
13108;SDS011;6620;53.734;11.510;2023-01-10T04:00:54;32.30;;;19.30;;
13108;SDS011;6620;53.734;11.510;2023-01-10T04:03:20;37.08;;;19.02;;
13108;SDS011;6620;53.734;11.510;2023-01-10T04:05:45;32.50;;;16.92;;
13108;SDS011;6620;53.734;11.510;2023-01-10T04:08:10;31.23;;;17.63;;
13108;SDS011;6620;53.734;11.510;2023-01-10T04:10:35;38.05;;;18.30;;
13108;SDS011;6620;53.734;11.510;2023-01-10T04:13:02;31.17;;;16.45;;
13108;SDS011;6620;53.734;11.510;2023-01-10T04:15:27;31.67;;;17.95;;
13108;SDS011;6620;53.734;11.510;2023-01-10T04:17:53;23.58;;;14.73;;
13108;SDS011;6620;53.734;11.510;2023-01-10T04:20:18;31.48;;;16.08;;
13108;SDS011;6620;53.734;11.510;2023-01-10T04:22:43;32.83;;;14.82;;
13108;SDS011;6620;53.734;11.510;2023-01-10T04:25:09;31.73;;;14.93;;
13108;SDS011;6620;53.734;11.510;2023-01-10T04:27:34;35.30;;;15.43;;
13108;SDS011;6620;53.734;11.510;2023-01-10T04:29:59;27.67;;;12.57;;
13108;SDS011;6620;53.734;11.510;2023-01-10T04:32:24;34.73;;;14.00;;
13108;SDS011;6620;53.734;11.510;2023-01-10T04:34:49;24.35;;;13.23;;
13108;SDS011;6620;53.734;11.510;2023-01-10T04:37:15;25.05;;;12.20;;
13108;SDS011;6620;53.734;11.510;2023-01-10T04:39:40;29.63;;;12.57;;
13108;SDS011;6620;53.734;11.510;2023-01-10T04:42:05;29.27;;;14.47;;
13108;SDS011;6620;53.734;11.510;2023-01-10T04:44:30;36.07;;;13.57;;
13108;SDS011;6620;53.734;11.510;2023-01-10T04:46:55;18.77;;;11.27;;
13108;SDS011;6620;53.734;11.510;2023-01-10T04:49:21;23.50;;;11.73;;
13108;SDS011;6620;53.734;11.510;2023-01-10T04:51:46;25.15;;;12.65;;
13108;SDS011;6620;53.734;11.510;2023-01-10T04:54:11;25.07;;;11.53;;
13108;SDS011;6620;53.734;11.510;2023-01-10T04:56:36;28.37;;;13.13;;
13108;SDS011;6620;53.734;11.510;2023-01-10T04:59:02;24.23;;;10.70;;
13108;SDS011;6620;53.734;11.510;2023-01-10T05:01:27;24.20;;;10.90;;
13108;SDS011;6620;53.734;11.510;2023-01-10T05:03:53;25.20;;;11.20;;
13108;SDS011;6620;53.734;11.510;2023-01-10T05:06:19;28.17;;;11.32;;
13108;SDS011;6620;53.734;11.510;2023-01-10T05:08:44;20.70;;;10.02;;
13108;SDS011;6620;53.734;11.510;2023-01-10T05:11:10;21.30;;;10.18;;
13108;SDS011;6620;53.734;11.510;2023-01-10T05:13:37;22.38;;;11.38;;
13108;SDS011;6620;53.734;11.510;2023-01-10T05:16:02;20.52;;;10.75;;
13108;SDS011;6620;53.734;11.510;2023-01-10T05:18:28;18.17;;;9.50;;
13108;SDS011;6620;53.734;11.510;2023-01-10T05:21:03;26.23;;;11.30;;
13108;SDS011;6620;53.734;11.510;2023-01-10T05:23:29;20.30;;;9.40;;
13108;SDS011;6620;53.734;11.510;2023-01-10T05:25:54;23.08;;;10.68;;
13108;SDS011;6620;53.734;11.510;2023-01-10T05:28:19;22.42;;;8.70;;
13108;SDS011;6620;53.734;11.510;2023-01-10T05:30:44;26.38;;;9.38;;
13108;SDS011;6620;53.734;11.510;2023-01-10T05:33:10;23.60;;;9.98;;
13108;SDS011;6620;53.734;11.510;2023-01-10T05:35:35;16.20;;;9.27;;
13108;SDS011;6620;53.734;11.510;2023-01-10T05:38:00;21.07;;;9.93;;
13108;SDS011;6620;53.734;11.510;2023-01-10T05:40:25;28.65;;;10.57;;
13108;SDS011;6620;53.734;11.510;2023-01-10T05:42:51;21.15;;;9.27;;
13108;SDS011;6620;53.734;11.510;2023-01-10T05:45:16;15.87;;;8.63;;
13108;SDS011;6620;53.734;11.510;2023-01-10T05:47:41;17.50;;;8.75;;
13108;SDS011;6620;53.734;11.510;2023-01-10T05:50:06;22.80;;;9.53;;
13108;SDS011;6620;53.734;11.510;2023-01-10T05:52:32;20.30;;;9.98;;
13108;SDS011;6620;53.734;11.510;2023-01-10T05:54:57;15.07;;;9.83;;
13108;SDS011;6620;53.734;11.510;2023-01-10T05:57:22;23.73;;;9.60;;
13108;SDS011;6620;53.734;11.510;2023-01-10T05:59:49;20.17;;;8.60;;
13108;SDS011;6620;53.734;11.510;2023-01-10T06:02:14;21.02;;;9.40;;
13108;SDS011;6620;53.734;11.510;2023-01-10T06:04:39;17.97;;;8.20;;
13108;SDS011;6620;53.734;11.510;2023-01-10T06:07:04;18.07;;;8.77;;
13108;SDS011;6620;53.734;11.510;2023-01-10T06:09:29;18.80;;;8.50;;
13108;SDS011;6620;53.734;11.510;2023-01-10T06:11:54;20.13;;;8.70;;
13108;SDS011;6620;53.734;11.510;2023-01-10T06:14:20;18.63;;;9.30;;
13108;SDS011;6620;53.734;11.510;2023-01-10T06:16:45;19.92;;;9.63;;
13108;SDS011;6620;53.734;11.510;2023-01-10T06:19:11;22.98;;;9.20;;
13108;SDS011;6620;53.734;11.510;2023-01-10T06:21:36;23.23;;;7.85;;
13108;SDS011;6620;53.734;11.510;2023-01-10T06:24:01;16.83;;;9.80;;
13108;SDS011;6620;53.734;11.510;2023-01-10T06:26:26;22.65;;;10.70;;
13108;SDS011;6620;53.734;11.510;2023-01-10T06:28:51;27.47;;;10.93;;
13108;SDS011;6620;53.734;11.510;2023-01-10T06:31:17;26.27;;;9.45;;
13108;SDS011;6620;53.734;11.510;2023-01-10T06:33:42;22.65;;;9.85;;
13108;SDS011;6620;53.734;11.510;2023-01-10T06:36:08;22.45;;;9.82;;
13108;SDS011;6620;53.734;11.510;2023-01-10T06:38:33;18.80;;;9.55;;
13108;SDS011;6620;53.734;11.510;2023-01-10T06:40:58;24.42;;;10.00;;
13108;SDS011;6620;53.734;11.510;2023-01-10T06:43:36;23.30;;;11.68;;
13108;SDS011;6620;53.734;11.510;2023-01-10T06:46:01;24.58;;;10.95;;
13108;SDS011;6620;53.734;11.510;2023-01-10T06:48:27;22.70;;;10.87;;
13108;SDS011;6620;53.734;11.510;2023-01-10T06:50:52;22.80;;;9.52;;
13108;SDS011;6620;53.734;11.510;2023-01-10T06:53:17;30.70;;;12.17;;
13108;SDS011;6620;53.734;11.510;2023-01-10T06:55:42;17.20;;;8.57;;
13108;SDS011;6620;53.734;11.510;2023-01-10T06:58:08;23.08;;;10.88;;
13108;SDS011;6620;53.734;11.510;2023-01-10T07:00:33;23.83;;;10.70;;
13108;SDS011;6620;53.734;11.510;2023-01-10T07:02:58;23.77;;;10.70;;
13108;SDS011;6620;53.734;11.510;2023-01-10T07:05:24;20.65;;;10.40;;
13108;SDS011;6620;53.734;11.510;2023-01-10T07:07:49;23.83;;;10.93;;
13108;SDS011;6620;53.734;11.510;2023-01-10T07:10:14;24.98;;;10.68;;
13108;SDS011;6620;53.734;11.510;2023-01-10T07:12:40;18.02;;;10.48;;
13108;SDS011;6620;53.734;11.510;2023-01-10T07:15:05;19.80;;;10.77;;
13108;SDS011;6620;53.734;11.510;2023-01-10T07:17:30;23.63;;;12.35;;
13108;SDS011;6620;53.734;11.510;2023-01-10T07:19:55;27.05;;;10.10;;
13108;SDS011;6620;53.734;11.510;2023-01-10T07:22:21;18.00;;;10.70;;
13108;SDS011;6620;53.734;11.510;2023-01-10T07:24:46;22.30;;;11.27;;
13108;SDS011;6620;53.734;11.510;2023-01-10T07:27:11;25.17;;;10.60;;
13108;SDS011;6620;53.734;11.510;2023-01-10T07:29:36;20.27;;;10.87;;
13108;SDS011;6620;53.734;11.510;2023-01-10T07:32:02;24.70;;;11.10;;
13108;SDS011;6620;53.734;11.510;2023-01-10T07:34:27;22.95;;;10.32;;
13108;SDS011;6620;53.734;11.510;2023-01-10T07:36:52;26.43;;;11.20;;
13108;SDS011;6620;53.734;11.510;2023-01-10T07:39:17;25.97;;;11.13;;
13108;SDS011;6620;53.734;11.510;2023-01-10T07:41:42;25.73;;;10.82;;
13108;SDS011;6620;53.734;11.510;2023-01-10T07:44:08;22.37;;;9.83;;
13108;SDS011;6620;53.734;11.510;2023-01-10T07:46:33;26.23;;;13.30;;
13108;SDS011;6620;53.734;11.510;2023-01-10T07:48:58;24.60;;;11.10;;
13108;SDS011;6620;53.734;11.510;2023-01-10T07:51:23;19.40;;;9.68;;
13108;SDS011;6620;53.734;11.510;2023-01-10T07:53:48;19.20;;;9.07;;
13108;SDS011;6620;53.734;11.510;2023-01-10T07:56:13;27.35;;;11.98;;
13108;SDS011;6620;53.734;11.510;2023-01-10T07:58:39;20.33;;;9.57;;
13108;SDS011;6620;53.734;11.510;2023-01-10T08:01:04;23.00;;;10.00;;
13108;SDS011;6620;53.734;11.510;2023-01-10T08:03:30;21.00;;;9.10;;
13108;SDS011;6620;53.734;11.510;2023-01-10T08:06:00;21.80;;;9.27;;
13108;SDS011;6620;53.734;11.510;2023-01-10T08:08:26;21.23;;;8.90;;
13108;SDS011;6620;53.734;11.510;2023-01-10T08:10:51;14.32;;;6.90;;
13108;SDS011;6620;53.734;11.510;2023-01-10T08:13:16;20.73;;;8.10;;
13108;SDS011;6620;53.734;11.510;2023-01-10T08:15:42;26.03;;;10.80;;
13108;SDS011;6620;53.734;11.510;2023-01-10T08:18:07;21.50;;;8.73;;
13108;SDS011;6620;53.734;11.510;2023-01-10T08:20:32;28.23;;;9.53;;
13108;SDS011;6620;53.734;11.510;2023-01-10T08:22:57;19.67;;;8.03;;
13108;SDS011;6620;53.734;11.510;2023-01-10T08:25:23;22.70;;;7.97;;
13108;SDS011;6620;53.734;11.510;2023-01-10T08:27:48;25.02;;;9.18;;
13108;SDS011;6620;53.734;11.510;2023-01-10T08:30:14;24.08;;;10.23;;
13108;SDS011;6620;53.734;11.510;2023-01-10T08:32:39;13.65;;;2.10;;
13108;SDS011;6620;53.734;11.510;2023-01-10T08:35:04;23.75;;;7.00;;
13108;SDS011;6620;53.734;11.510;2023-01-10T08:37:29;27.08;;;9.25;;
13108;SDS011;6620;53.734;11.510;2023-01-10T08:39:55;22.98;;;9.07;;
13108;SDS011;6620;53.734;11.510;2023-01-10T08:42:20;16.97;;;7.90;;
13108;SDS011;6620;53.734;11.510;2023-01-10T08:44:45;24.15;;;8.27;;
13108;SDS011;6620;53.734;11.510;2023-01-10T08:47:10;16.23;;;6.25;;
13108;SDS011;6620;53.734;11.510;2023-01-10T08:49:36;20.25;;;7.13;;
13108;SDS011;6620;53.734;11.510;2023-01-10T08:52:01;21.95;;;8.68;;
13108;SDS011;6620;53.734;11.510;2023-01-10T08:54:26;28.13;;;8.50;;
13108;SDS011;6620;53.734;11.510;2023-01-10T08:56:52;4.68;;;1.92;;
13108;SDS011;6620;53.734;11.510;2023-01-10T08:59:17;17.92;;;6.38;;
13108;SDS011;6620;53.734;11.510;2023-01-10T09:01:42;26.35;;;8.40;;
13108;SDS011;6620;53.734;11.510;2023-01-10T09:04:07;22.63;;;6.43;;
13108;SDS011;6620;53.734;11.510;2023-01-10T09:06:32;21.27;;;8.03;;
13108;SDS011;6620;53.734;11.510;2023-01-10T09:08:58;22.80;;;6.40;;
13108;SDS011;6620;53.734;11.510;2023-01-10T09:11:23;31.17;;;8.73;;
13108;SDS011;6620;53.734;11.510;2023-01-10T09:13:49;21.43;;;9.70;;
13108;SDS011;6620;53.734;11.510;2023-01-10T09:16:14;30.58;;;9.85;;
13108;SDS011;6620;53.734;11.510;2023-01-10T09:18:40;37.03;;;9.98;;
13108;SDS011;6620;53.734;11.510;2023-01-10T09:21:05;31.07;;;9.20;;
13108;SDS011;6620;53.734;11.510;2023-01-10T09:23:31;22.02;;;9.73;;
13108;SDS011;6620;53.734;11.510;2023-01-10T09:25:56;31.05;;;10.75;;
13108;SDS011;6620;53.734;11.510;2023-01-10T09:28:22;18.88;;;8.20;;
13108;SDS011;6620;53.734;11.510;2023-01-10T09:30:48;28.48;;;9.32;;
13108;SDS011;6620;53.734;11.510;2023-01-10T09:33:14;24.05;;;10.82;;
13108;SDS011;6620;53.734;11.510;2023-01-10T09:35:39;27.08;;;9.95;;
13108;SDS011;6620;53.734;11.510;2023-01-10T09:38:05;27.83;;;10.52;;
13108;SDS011;6620;53.734;11.510;2023-01-10T09:40:53;25.92;;;9.75;;
13108;SDS011;6620;53.734;11.510;2023-01-10T09:45:57;17.02;;;9.38;;
13108;SDS011;6620;53.734;11.510;2023-01-10T09:53:33;27.58;;;7.88;;
13108;SDS011;6620;53.734;11.510;2023-01-10T09:56:00;28.70;;;10.57;;
13108;SDS011;6620;53.734;11.510;2023-01-10T09:58:26;19.87;;;8.37;;
13108;SDS011;6620;53.734;11.510;2023-01-10T10:00:54;19.17;;;7.63;;
13108;SDS011;6620;53.734;11.510;2023-01-10T10:03:29;15.18;;;6.13;;
13108;SDS011;6620;53.734;11.510;2023-01-10T10:05:55;24.65;;;9.63;;
13108;SDS011;6620;53.734;11.510;2023-01-10T10:08:20;17.27;;;6.18;;
13108;SDS011;6620;53.734;11.510;2023-01-10T10:18:43;22.63;;;7.28;;
13108;SDS011;6620;53.734;11.510;2023-01-10T10:21:26;17.02;;;7.75;;
13108;SDS011;6620;53.734;11.510;2023-01-10T10:24:01;21.27;;;7.13;;
13108;SDS011;6620;53.734;11.510;2023-01-10T10:27:04;21.75;;;6.50;;
13108;SDS011;6620;53.734;11.510;2023-01-10T10:34:47;22.50;;;7.75;;
13108;SDS011;6620;53.734;11.510;2023-01-10T10:37:18;15.18;;;6.68;;
13108;SDS011;6620;53.734;11.510;2023-01-10T10:39:46;16.85;;;6.75;;
13108;SDS011;6620;53.734;11.510;2023-01-10T10:42:14;25.55;;;8.48;;
13108;SDS011;6620;53.734;11.510;2023-01-10T10:47:25;21.88;;;7.18;;
13108;SDS011;6620;53.734;11.510;2023-01-10T10:49:59;19.92;;;6.88;;
13108;SDS011;6620;53.734;11.510;2023-01-10T10:52:28;21.60;;;6.43;;
13108;SDS011;6620;53.734;11.510;2023-01-10T10:54:56;20.45;;;7.78;;
13108;SDS011;6620;53.734;11.510;2023-01-10T10:57:23;17.40;;;4.78;;
13108;SDS011;6620;53.734;11.510;2023-01-10T10:59:48;24.13;;;8.40;;
13108;SDS011;6620;53.734;11.510;2023-01-10T11:02:34;23.95;;;6.03;;
13108;SDS011;6620;53.734;11.510;2023-01-10T11:05:03;8.00;;;3.28;;
13108;SDS011;6620;53.734;11.510;2023-01-10T11:07:30;16.05;;;6.00;;
13108;SDS011;6620;53.734;11.510;2023-01-10T11:09:57;22.55;;;5.53;;
13108;SDS011;6620;53.734;11.510;2023-01-10T11:12:32;19.02;;;6.10;;
13108;SDS011;6620;53.734;11.510;2023-01-10T11:14:58;20.67;;;5.35;;
13108;SDS011;6620;53.734;11.510;2023-01-10T11:17:29;27.33;;;6.40;;
13108;SDS011;6620;53.734;11.510;2023-01-10T11:22:19;19.83;;;6.20;;
13108;SDS011;6620;53.734;11.510;2023-01-10T11:27:23;12.83;;;4.17;;
13108;SDS011;6620;53.734;11.510;2023-01-10T11:32:18;17.17;;;5.20;;
13108;SDS011;6620;53.734;11.510;2023-01-10T11:34:51;20.23;;;6.20;;
13108;SDS011;6620;53.734;11.510;2023-01-10T11:42:36;18.23;;;5.10;;
13108;SDS011;6620;53.734;11.510;2023-01-10T11:47:42;19.27;;;5.90;;
13108;SDS011;6620;53.734;11.510;2023-01-10T11:50:09;18.90;;;4.72;;
13108;SDS011;6620;53.734;11.510;2023-01-10T11:52:35;15.52;;;5.50;;
13108;SDS011;6620;53.734;11.510;2023-01-10T11:55:01;6.07;;;2.80;;
13108;SDS011;6620;53.734;11.510;2023-01-10T11:57:27;12.98;;;5.10;;
13108;SDS011;6620;53.734;11.510;2023-01-10T11:59:55;21.23;;;5.05;;
13108;SDS011;6620;53.734;11.510;2023-01-10T12:04:49;19.92;;;5.38;;
13108;SDS011;6620;53.734;11.510;2023-01-10T12:07:15;14.88;;;4.45;;
13108;SDS011;6620;53.734;11.510;2023-01-10T12:09:43;16.08;;;4.70;;
13108;SDS011;6620;53.734;11.510;2023-01-10T12:12:16;17.23;;;5.45;;
13108;SDS011;6620;53.734;11.510;2023-01-10T12:14:43;18.88;;;4.95;;
13108;SDS011;6620;53.734;11.510;2023-01-10T12:17:09;15.25;;;5.05;;
13108;SDS011;6620;53.734;11.510;2023-01-10T12:19:36;14.48;;;5.65;;
13108;SDS011;6620;53.734;11.510;2023-01-10T12:22:02;13.15;;;3.95;;
13108;SDS011;6620;53.734;11.510;2023-01-10T12:24:34;17.52;;;5.43;;
13108;SDS011;6620;53.734;11.510;2023-01-10T12:27:03;21.60;;;5.32;;
13108;SDS011;6620;53.734;11.510;2023-01-10T12:29:33;13.18;;;4.50;;
13108;SDS011;6620;53.734;11.510;2023-01-10T12:31:59;13.73;;;3.65;;
13108;SDS011;6620;53.734;11.510;2023-01-10T12:34:26;11.32;;;4.07;;
13108;SDS011;6620;53.734;11.510;2023-01-10T12:37:08;20.40;;;4.88;;
13108;SDS011;6620;53.734;11.510;2023-01-10T12:44:59;9.73;;;1.73;;
13108;SDS011;6620;53.734;11.510;2023-01-10T12:47:31;16.63;;;4.28;;
13108;SDS011;6620;53.734;11.510;2023-01-10T12:52:31;16.67;;;4.73;;
13108;SDS011;6620;53.734;11.510;2023-01-10T12:54:57;12.93;;;4.53;;
13108;SDS011;6620;53.734;11.510;2023-01-10T12:57:25;15.50;;;3.92;;
13108;SDS011;6620;53.734;11.510;2023-01-10T12:59:51;9.40;;;2.80;;
13108;SDS011;6620;53.734;11.510;2023-01-10T13:02:18;11.55;;;3.97;;
13108;SDS011;6620;53.734;11.510;2023-01-10T13:04:46;14.05;;;4.80;;
13108;SDS011;6620;53.734;11.510;2023-01-10T13:07:13;20.48;;;5.40;;
13108;SDS011;6620;53.734;11.510;2023-01-10T13:09:40;14.63;;;4.38;;
13108;SDS011;6620;53.734;11.510;2023-01-10T13:12:13;13.82;;;5.43;;
13108;SDS011;6620;53.734;11.510;2023-01-10T13:14:54;19.85;;;5.38;;
13108;SDS011;6620;53.734;11.510;2023-01-10T13:22:32;16.05;;;4.40;;
13108;SDS011;6620;53.734;11.510;2023-01-10T13:24:59;10.05;;;3.33;;
13108;SDS011;6620;53.734;11.510;2023-01-10T13:27:26;19.17;;;5.20;;
13108;SDS011;6620;53.734;11.510;2023-01-10T13:29:53;14.20;;;5.28;;
13108;SDS011;6620;53.734;11.510;2023-01-10T13:32:20;12.57;;;3.97;;
13108;SDS011;6620;53.734;11.510;2023-01-10T13:34:46;11.05;;;4.57;;
13108;SDS011;6620;53.734;11.510;2023-01-10T13:37:13;11.45;;;4.90;;
13108;SDS011;6620;53.734;11.510;2023-01-10T13:39:49;14.13;;;5.10;;
13108;SDS011;6620;53.734;11.510;2023-01-10T13:42:23;10.73;;;3.90;;
13108;SDS011;6620;53.734;11.510;2023-01-10T13:53:39;13.55;;;4.60;;
13108;SDS011;6620;53.734;11.510;2023-01-10T14:00:51;13.52;;;4.30;;
13108;SDS011;6620;53.734;11.510;2023-01-10T14:03:42;17.75;;;4.05;;
13108;SDS011;6620;53.734;11.510;2023-01-10T14:06:53;19.48;;;3.75;;
13108;SDS011;6620;53.734;11.510;2023-01-10T14:09:00;16.73;;;5.28;;
13108;SDS011;6620;53.734;11.510;2023-01-10T14:11:27;15.07;;;4.65;;
13108;SDS011;6620;53.734;11.510;2023-01-10T14:13:54;15.48;;;4.10;;
13108;SDS011;6620;53.734;11.510;2023-01-10T14:16:33;12.90;;;4.75;;
13108;SDS011;6620;53.734;11.510;2023-01-10T14:19:00;4.65;;;2.13;;
13108;SDS011;6620;53.734;11.510;2023-01-10T14:21:26;15.25;;;3.78;;
13108;SDS011;6620;53.734;11.510;2023-01-10T14:23:52;11.32;;;3.75;;
13108;SDS011;6620;53.734;11.510;2023-01-10T14:28:46;20.55;;;4.47;;
13108;SDS011;6620;53.734;11.510;2023-01-10T14:31:22;17.67;;;5.15;;
13108;SDS011;6620;53.734;11.510;2023-01-10T14:33:49;21.42;;;5.07;;
13108;SDS011;6620;53.734;11.510;2023-01-10T14:36:17;18.30;;;6.18;;
13108;SDS011;6620;53.734;11.510;2023-01-10T14:38:44;19.40;;;4.28;;
13108;SDS011;6620;53.734;11.510;2023-01-10T14:41:18;12.05;;;5.93;;
13108;SDS011;6620;53.734;11.510;2023-01-10T14:43:53;19.63;;;5.18;;
13108;SDS011;6620;53.734;11.510;2023-01-10T14:46:25;16.33;;;4.82;;
13108;SDS011;6620;53.734;11.510;2023-01-10T14:48:53;13.48;;;4.82;;
13108;SDS011;6620;53.734;11.510;2023-01-10T14:51:23;21.20;;;5.07;;
13108;SDS011;6620;53.734;11.510;2023-01-10T14:56:37;9.77;;;2.38;;
13108;SDS011;6620;53.734;11.510;2023-01-10T14:59:14;12.32;;;4.50;;
13108;SDS011;6620;53.734;11.510;2023-01-10T15:01:40;16.98;;;4.78;;
13108;SDS011;6620;53.734;11.510;2023-01-10T15:04:11;6.90;;;2.67;;
13108;SDS011;6620;53.734;11.510;2023-01-10T15:06:54;15.60;;;4.15;;
13108;SDS011;6620;53.734;11.510;2023-01-10T15:09:19;12.70;;;4.63;;
13108;SDS011;6620;53.734;11.510;2023-01-10T15:11:45;17.73;;;4.33;;
13108;SDS011;6620;53.734;11.510;2023-01-10T15:14:11;14.90;;;4.28;;
13108;SDS011;6620;53.734;11.510;2023-01-10T15:16:41;16.23;;;4.72;;
13108;SDS011;6620;53.734;11.510;2023-01-10T15:19:09;17.85;;;5.38;;
13108;SDS011;6620;53.734;11.510;2023-01-10T15:21:39;21.60;;;4.47;;
13108;SDS011;6620;53.734;11.510;2023-01-10T15:24:21;18.60;;;5.60;;
13108;SDS011;6620;53.734;11.510;2023-01-10T15:29:13;16.85;;;4.28;;
13108;SDS011;6620;53.734;11.510;2023-01-10T15:31:43;16.38;;;4.93;;
13108;SDS011;6620;53.734;11.510;2023-01-10T15:34:16;21.95;;;5.72;;
13108;SDS011;6620;53.734;11.510;2023-01-10T15:36:47;21.02;;;5.80;;
13108;SDS011;6620;53.734;11.510;2023-01-10T15:39:16;14.53;;;5.53;;
13108;SDS011;6620;53.734;11.510;2023-01-10T15:41:43;19.88;;;5.65;;
13108;SDS011;6620;53.734;11.510;2023-01-10T15:44:21;20.00;;;6.93;;
13108;SDS011;6620;53.734;11.510;2023-01-10T15:46:54;15.98;;;6.05;;
13108;SDS011;6620;53.734;11.510;2023-01-10T15:49:20;17.23;;;7.53;;
13108;SDS011;6620;53.734;11.510;2023-01-10T15:51:46;29.20;;;7.78;;
13108;SDS011;6620;53.734;11.510;2023-01-10T15:56:50;21.67;;;8.20;;
13108;SDS011;6620;53.734;11.510;2023-01-10T15:59:26;15.93;;;5.70;;
13108;SDS011;6620;53.734;11.510;2023-01-10T16:04:19;22.90;;;8.57;;
13108;SDS011;6620;53.734;11.510;2023-01-10T16:06:44;20.85;;;8.07;;
13108;SDS011;6620;53.734;11.510;2023-01-10T16:09:16;23.92;;;8.43;;
13108;SDS011;6620;53.734;11.510;2023-01-10T16:14:27;19.13;;;7.60;;
13108;SDS011;6620;53.734;11.510;2023-01-10T16:16:52;17.77;;;7.67;;
13108;SDS011;6620;53.734;11.510;2023-01-10T16:19:17;17.10;;;8.07;;
13108;SDS011;6620;53.734;11.510;2023-01-10T16:21:43;14.70;;;6.20;;
13108;SDS011;6620;53.734;11.510;2023-01-10T16:24:42;20.65;;;8.18;;
13108;SDS011;6620;53.734;11.510;2023-01-10T16:27:04;30.10;;;7.87;;